createdAt,value
2019-04-30T00:00:18.374Z,9.21
2019-04-30T00:01:19.037Z,9.14
2019-04-30T00:02:17.802Z,9.19
2019-04-30T00:03:19.535Z,9.22
2019-04-30T00:04:17.835Z,9.22
2019-04-30T00:05:19.115Z,9.26
2019-04-30T00:06:17.729Z,9.18
2019-04-30T00:07:19.182Z,9.16
2019-04-30T00:08:17.760Z,9.19
2019-04-30T00:09:19.197Z,9.26
2019-04-30T00:10:17.652Z,9.21
2019-04-30T00:11:19.486Z,9.18
2019-04-30T00:12:17.644Z,9.13
2019-04-30T00:13:20.811Z,9.14
2019-04-30T00:14:17.790Z,9.19
2019-04-30T00:15:19.493Z,9.14
2019-04-30T00:16:17.595Z,9.14
2019-04-30T00:17:19.699Z,9.13
2019-04-30T00:18:17.551Z,9.19
2019-04-30T00:19:19.567Z,9.11
2019-04-30T00:20:17.799Z,9.00
2019-04-30T00:21:18.814Z,9.02
2019-04-30T00:22:17.544Z,9.04
2019-04-30T00:23:18.100Z,9.04
2019-04-30T00:24:17.558Z,8.99
2019-04-30T00:25:19.600Z,8.92
2019-04-30T00:26:18.507Z,8.97
2019-04-30T00:27:21.001Z,8.94
2019-04-30T00:28:18.503Z,8.94
2019-04-30T00:29:26.525Z,8.82
2019-04-30T00:30:18.521Z,8.89
2019-04-30T00:31:23.722Z,8.87
2019-04-30T00:32:18.413Z,8.78
2019-04-30T00:33:22.263Z,8.87
2019-04-30T00:34:18.459Z,8.81
2019-04-30T00:35:19.574Z,8.79
2019-04-30T00:36:17.476Z,8.79
2019-04-30T00:37:18.859Z,8.76
2019-04-30T00:38:17.354Z,8.69
2019-04-30T00:39:17.524Z,8.78
2019-04-30T00:40:17.386Z,8.76
2019-04-30T00:41:17.332Z,8.67
2019-04-30T00:42:23.982Z,8.69
2019-04-30T00:43:18.297Z,8.69
2019-04-30T00:44:19.894Z,8.71
2019-04-30T00:45:18.339Z,8.63
2019-04-30T00:46:25.005Z,8.69
2019-04-30T00:47:18.405Z,8.69
2019-04-30T00:48:27.019Z,8.60
2019-04-30T00:49:22.945Z,8.66
2019-04-30T00:50:18.422Z,8.67
2019-04-30T00:51:21.223Z,8.71
2019-04-30T00:52:17.414Z,8.73
2019-04-30T00:53:17.316Z,8.67
2019-04-30T00:54:17.731Z,8.63
2019-04-30T00:55:17.393Z,8.67
2019-04-30T00:56:19.883Z,8.71
2019-04-30T00:57:18.336Z,8.67
2019-04-30T00:58:24.711Z,8.69
2019-04-30T00:59:18.113Z,8.74
2019-04-30T01:00:25.104Z,8.73
2019-04-30T01:01:18.082Z,8.76
2019-04-30T01:02:20.065Z,8.79
2019-04-30T01:03:18.091Z,8.74
2019-04-30T01:04:19.538Z,8.78
2019-04-30T01:05:18.212Z,8.73
2019-04-30T01:06:24.053Z,8.78
2019-04-30T01:07:18.114Z,8.73
2019-04-30T01:08:21.153Z,8.78
2019-04-30T01:09:18.007Z,8.82
2019-04-30T01:10:19.729Z,8.81
2019-04-30T01:11:18.161Z,8.79
2019-04-30T01:12:24.631Z,8.82
2019-04-30T01:13:19.275Z,8.76
2019-04-30T01:14:18.869Z,8.82
2019-04-30T01:15:16.964Z,8.82
2019-04-30T01:16:17.046Z,8.78
2019-04-30T01:17:18.761Z,8.82
2019-04-30T01:18:16.976Z,8.78
2019-04-30T01:19:27.581Z,8.70
2019-04-30T01:20:19.328Z,8.76
2019-04-30T01:21:18.517Z,8.71
2019-04-30T01:22:21.259Z,8.74
2019-04-30T01:23:19.497Z,8.74
2019-04-30T01:24:18.919Z,8.73
2019-04-30T01:25:18.751Z,8.66
2019-04-30T01:26:18.612Z,8.73
2019-04-30T01:27:18.681Z,8.76
2019-04-30T01:28:23.114Z,8.73
2019-04-30T01:29:19.247Z,8.69
2019-04-30T01:30:21.077Z,8.73
2019-04-30T01:31:18.756Z,8.76
2019-04-30T01:32:20.809Z,8.74
2019-04-30T01:33:19.030Z,8.78
2019-04-30T01:34:16.765Z,8.73
2019-04-30T01:35:16.783Z,8.84
2019-04-30T01:36:16.733Z,8.82
2019-04-30T01:37:20.293Z,8.78
2019-04-30T01:38:18.907Z,8.81
2019-04-30T01:39:16.880Z,8.76
2019-04-30T01:40:18.826Z,8.81
2019-04-30T01:41:20.247Z,8.82
2019-04-30T01:42:18.644Z,8.78
2019-04-30T01:43:23.541Z,8.76
2019-04-30T01:44:19.361Z,8.76
2019-04-30T01:45:18.623Z,8.85
2019-04-30T01:46:16.637Z,8.82
2019-04-30T01:47:20.972Z,8.81
2019-04-30T01:48:19.297Z,8.73
2019-04-30T01:49:20.001Z,8.73
2019-04-30T01:50:16.635Z,8.71
2019-04-30T01:51:20.440Z,8.69
2019-04-30T01:52:19.330Z,8.69
2019-04-30T01:53:16.568Z,8.67
2019-04-30T01:54:21.135Z,8.67
2019-04-30T01:55:19.626Z,8.63
2019-04-30T01:56:16.576Z,8.60
2019-04-30T01:57:16.603Z,8.69
2019-04-30T01:58:19.132Z,8.64
2019-04-30T01:59:16.556Z,8.67
2019-04-30T02:00:16.477Z,8.64
2019-04-30T02:01:16.702Z,8.64
2019-04-30T02:02:16.449Z,8.69
2019-04-30T02:03:16.582Z,8.70
2019-04-30T02:04:16.438Z,8.67
2019-04-30T02:05:16.429Z,8.69
2019-04-30T02:06:16.465Z,8.76
2019-04-30T02:07:18.999Z,8.67
2019-04-30T02:08:16.399Z,8.76
2019-04-30T02:09:16.478Z,8.73
2019-04-30T02:10:16.381Z,8.66
2019-04-30T02:11:18.956Z,8.69
2019-04-30T02:12:16.361Z,8.58
2019-04-30T02:13:16.476Z,8.66
2019-04-30T02:14:16.337Z,8.55
2019-04-30T02:15:16.451Z,8.60
2019-04-30T02:16:16.361Z,8.55
2019-04-30T02:17:16.502Z,8.52
2019-04-30T02:18:16.365Z,8.61
2019-04-30T02:19:16.477Z,8.51
2019-04-30T02:20:16.274Z,8.55
2019-04-30T02:21:16.373Z,8.56
2019-04-30T02:22:16.234Z,8.53
2019-04-30T02:23:16.451Z,8.53
2019-04-30T02:24:16.224Z,8.58
2019-04-30T02:25:16.400Z,8.61
2019-04-30T02:26:16.211Z,8.55
2019-04-30T02:27:16.300Z,8.61
2019-04-30T02:28:16.258Z,8.64
2019-04-30T02:29:16.322Z,8.56
2019-04-30T02:30:16.148Z,8.64
2019-04-30T02:31:16.241Z,8.61
2019-04-30T02:32:16.149Z,8.60
2019-04-30T02:33:16.319Z,8.67
2019-04-30T02:34:16.163Z,8.55
2019-04-30T02:35:16.316Z,8.58
2019-04-30T02:36:16.097Z,8.60
2019-04-30T02:37:16.196Z,8.61
2019-04-30T02:38:16.124Z,8.60
2019-04-30T02:39:16.168Z,8.61
2019-04-30T02:40:16.111Z,8.55
2019-04-30T02:41:16.197Z,8.58
2019-04-30T02:42:16.085Z,8.55
2019-04-30T02:43:16.101Z,8.44
2019-04-30T02:44:16.062Z,8.52
2019-04-30T02:45:16.131Z,8.44
2019-04-30T02:46:16.016Z,8.45
2019-04-30T02:47:16.232Z,8.46
2019-04-30T02:48:15.970Z,8.34
2019-04-30T02:49:16.117Z,8.28
2019-04-30T02:50:21.662Z,8.28
2019-04-30T02:51:20.173Z,8.30
2019-04-30T02:52:19.411Z,8.34
2019-04-30T02:53:16.059Z,8.33
2019-04-30T02:54:15.995Z,8.34
2019-04-30T02:55:16.002Z,8.33
2019-04-30T02:56:15.916Z,8.37
2019-04-30T02:57:16.007Z,8.37
2019-04-30T02:58:15.869Z,8.33
2019-04-30T02:59:16.079Z,8.33
2019-04-30T03:00:16.047Z,8.31
2019-04-30T03:01:15.862Z,8.28
2019-04-30T03:02:15.919Z,8.30
2019-04-30T03:03:15.779Z,8.33
2019-04-30T03:04:15.943Z,8.27
2019-04-30T03:05:15.823Z,8.27
2019-04-30T03:06:15.781Z,8.30
2019-04-30T03:07:15.843Z,8.34
2019-04-30T03:08:15.736Z,8.23
2019-04-30T03:09:15.870Z,8.20
2019-04-30T03:10:15.763Z,8.20
2019-04-30T03:11:15.883Z,8.20
2019-04-30T03:12:15.798Z,8.20
2019-04-30T03:13:16.715Z,8.08
2019-04-30T03:14:15.694Z,8.13
2019-04-30T03:15:15.799Z,8.18
2019-04-30T03:16:15.671Z,8.20
2019-04-30T03:17:15.888Z,8.13
2019-04-30T03:18:15.859Z,8.19
2019-04-30T03:19:15.671Z,8.19
2019-04-30T03:20:31.007Z,8.16
2019-04-30T03:21:19.060Z,8.20
2019-04-30T03:22:15.752Z,8.13
2019-04-30T03:23:15.615Z,8.13
2019-04-30T03:24:15.595Z,8.15
2019-04-30T03:25:15.670Z,8.08
2019-04-30T03:26:15.566Z,8.10
2019-04-30T03:27:15.669Z,8.10
2019-04-30T03:28:15.587Z,8.13
2019-04-30T03:29:15.692Z,8.09
2019-04-30T03:30:15.663Z,8.13
2019-04-30T03:31:15.537Z,8.10
2019-04-30T03:32:15.676Z,8.01
2019-04-30T03:33:15.492Z,8.12
2019-04-30T03:34:23.240Z,8.08
2019-04-30T03:35:16.485Z,8.03
2019-04-30T03:36:15.486Z,8.03
2019-04-30T03:37:15.524Z,8.01
2019-04-30T03:38:15.557Z,8.05
2019-04-30T03:39:15.418Z,8.05
2019-04-30T03:40:15.579Z,8.05
2019-04-30T03:41:15.412Z,7.98
2019-04-30T03:42:15.425Z,8.03
2019-04-30T03:43:15.381Z,8.00
2019-04-30T03:44:21.427Z,7.97
2019-04-30T03:45:16.391Z,8.06
2019-04-30T03:46:15.516Z,7.95
2019-04-30T03:47:15.414Z,7.98
2019-04-30T03:48:15.341Z,7.95
2019-04-30T03:49:15.355Z,7.97
2019-04-30T03:50:15.432Z,7.93
2019-04-30T03:51:15.350Z,7.97
2019-04-30T03:52:15.467Z,8.03
2019-04-30T03:53:15.282Z,7.97
2019-04-30T03:54:15.305Z,8.08
2019-04-30T03:55:15.254Z,7.97
2019-04-30T03:56:15.474Z,7.98
2019-04-30T03:57:15.248Z,8.12
2019-04-30T03:58:16.290Z,7.95
2019-04-30T03:59:15.325Z,8.06
2019-04-30T04:00:15.217Z,7.98
2019-04-30T04:01:15.223Z,7.98
2019-04-30T04:02:15.327Z,8.09
2019-04-30T04:03:15.183Z,8.03
2019-04-30T04:04:16.319Z,7.94
2019-04-30T04:05:15.126Z,7.98
2019-04-30T04:06:15.198Z,8.03
2019-04-30T04:07:15.146Z,7.98
2019-04-30T04:08:15.323Z,7.98
2019-04-30T04:09:15.126Z,7.98
2019-04-30T04:10:15.215Z,7.97
2019-04-30T04:11:15.086Z,7.95
2019-04-30T04:12:15.219Z,8.00
2019-04-30T04:13:15.057Z,7.98
2019-04-30T04:14:15.177Z,8.05
2019-04-30T04:15:15.094Z,7.95
2019-04-30T04:16:15.245Z,7.94
2019-04-30T04:17:15.079Z,7.95
2019-04-30T04:18:15.101Z,7.94
2019-04-30T04:19:14.992Z,8.06
2019-04-30T04:20:15.124Z,7.95
2019-04-30T04:21:16.977Z,7.90
2019-04-30T04:22:15.127Z,7.94
2019-04-30T04:23:15.020Z,7.95
2019-04-30T04:24:15.045Z,7.91
2019-04-30T04:25:15.032Z,7.94
2019-04-30T04:26:15.060Z,7.94
2019-04-30T04:27:14.946Z,7.94
2019-04-30T04:28:15.097Z,7.93
2019-04-30T04:29:14.954Z,7.94
2019-04-30T04:30:15.033Z,7.93
2019-04-30T04:31:14.930Z,7.93
2019-04-30T04:32:15.003Z,7.90
2019-04-30T04:33:14.989Z,7.93
2019-04-30T04:34:15.081Z,7.93
2019-04-30T04:35:14.863Z,7.95
2019-04-30T04:36:15.016Z,7.87
2019-04-30T04:37:14.826Z,7.94
2019-04-30T04:38:15.007Z,7.94
2019-04-30T04:39:14.798Z,7.94
2019-04-30T04:40:14.850Z,7.94
2019-04-30T04:41:14.837Z,7.95
2019-04-30T04:42:14.845Z,7.88
2019-04-30T04:43:14.941Z,7.93
2019-04-30T04:44:14.753Z,7.90
2019-04-30T04:45:14.913Z,7.94
2019-04-30T04:46:15.575Z,7.95
2019-04-30T04:47:16.273Z,7.97
2019-04-30T04:48:14.775Z,7.82
2019-04-30T04:49:14.690Z,7.88
2019-04-30T04:50:14.796Z,7.93
2019-04-30T04:51:33.362Z,7.82
2019-04-30T04:52:15.693Z,7.82
2019-04-30T04:53:14.709Z,7.85
2019-04-30T04:54:14.628Z,7.80
2019-04-30T04:55:14.624Z,7.73
2019-04-30T04:56:14.824Z,7.73
2019-04-30T04:57:18.253Z,7.72
2019-04-30T04:58:15.662Z,7.76
2019-04-30T04:59:14.573Z,7.88
2019-04-30T05:00:14.656Z,7.80
2019-04-30T05:01:14.726Z,7.83
2019-04-30T05:02:14.549Z,7.79
2019-04-30T05:03:14.674Z,7.80
2019-04-30T05:04:14.536Z,7.80
2019-04-30T05:05:15.614Z,7.79
2019-04-30T05:06:14.563Z,7.97
2019-04-30T05:07:14.529Z,7.94
2019-04-30T05:08:14.478Z,7.94
2019-04-30T05:09:14.515Z,7.95
2019-04-30T05:10:14.513Z,7.90
2019-04-30T05:11:14.522Z,7.93
2019-04-30T05:12:14.500Z,7.93
2019-04-30T05:13:14.437Z,7.83
2019-04-30T05:14:14.431Z,7.83
2019-04-30T05:15:14.549Z,7.94
2019-04-30T05:16:14.452Z,7.97
2019-04-30T05:17:14.526Z,7.95
2019-04-30T05:18:14.434Z,7.93
2019-04-30T05:19:14.364Z,7.94
2019-04-30T05:20:14.483Z,7.90
2019-04-30T05:21:14.466Z,7.93
2019-04-30T05:22:14.450Z,7.95
2019-04-30T05:23:14.350Z,7.98
2019-04-30T05:24:14.536Z,8.03
2019-04-30T05:25:14.432Z,8.00
2019-04-30T05:26:14.341Z,7.95
2019-04-30T05:27:14.352Z,7.93
2019-04-30T05:28:14.447Z,7.93
2019-04-30T05:29:14.379Z,7.94
2019-04-30T05:30:14.263Z,7.91
2019-04-30T05:31:14.255Z,7.95
2019-04-30T05:32:14.222Z,7.95
2019-04-30T05:33:14.361Z,7.91
2019-04-30T05:34:14.220Z,7.88
2019-04-30T05:35:14.336Z,7.83
2019-04-30T05:36:14.206Z,7.70
2019-04-30T05:37:14.167Z,7.75
2019-04-30T05:38:14.247Z,7.90
2019-04-30T05:39:14.251Z,7.83
2019-04-30T05:40:14.219Z,7.82
2019-04-30T05:41:14.257Z,7.83
2019-04-30T05:42:14.140Z,7.91
2019-04-30T05:43:14.115Z,7.94
2019-04-30T05:44:14.170Z,7.90
2019-04-30T05:45:14.182Z,7.97
2019-04-30T05:46:14.212Z,7.95
2019-04-30T05:47:14.196Z,7.95
2019-04-30T05:48:14.150Z,7.83
2019-04-30T05:49:14.099Z,7.88
2019-04-30T05:50:14.081Z,7.83
2019-04-30T05:51:14.120Z,7.88
2019-04-30T05:52:14.030Z,7.93
2019-04-30T05:53:14.210Z,7.91
2019-04-30T05:54:14.001Z,7.95
2019-04-30T05:55:14.050Z,8.03
2019-04-30T05:56:14.022Z,7.93
2019-04-30T05:57:14.055Z,7.98
2019-04-30T05:58:14.013Z,7.95
2019-04-30T05:59:14.069Z,7.95
2019-04-30T06:00:13.969Z,8.08
2019-04-30T06:01:13.962Z,7.94
2019-04-30T06:02:13.981Z,7.95
2019-04-30T06:03:25.155Z,7.94
2019-04-30T06:04:14.884Z,7.91
2019-04-30T06:05:14.071Z,7.94
2019-04-30T06:06:13.897Z,7.93
2019-04-30T06:07:14.057Z,7.95
2019-04-30T06:08:13.859Z,7.98
2019-04-30T06:09:18.739Z,7.95
2019-04-30T06:10:14.827Z,7.93
2019-04-30T06:11:13.956Z,7.93
2019-04-30T06:12:13.852Z,7.80
2019-04-30T06:13:13.814Z,7.76
2019-04-30T06:14:13.776Z,7.75
2019-04-30T06:15:14.176Z,7.82
2019-04-30T06:16:13.816Z,7.88
2019-04-30T06:17:14.068Z,7.93
2019-04-30T06:18:14.107Z,7.87
2019-04-30T06:19:13.737Z,7.94
2019-04-30T06:20:18.366Z,7.94
2019-04-30T06:21:14.796Z,7.90
2019-04-30T06:22:13.873Z,7.95
2019-04-30T06:23:13.855Z,7.97
2019-04-30T06:24:13.677Z,7.97
2019-04-30T06:25:13.659Z,7.98
2019-04-30T06:26:13.756Z,8.01
2019-04-30T06:27:13.710Z,8.03
2019-04-30T06:28:13.763Z,8.09
2019-04-30T06:29:13.749Z,8.09
2019-04-30T06:30:13.608Z,8.01
2019-04-30T06:31:13.786Z,8.06
2019-04-30T06:32:13.770Z,8.01
2019-04-30T06:33:13.616Z,8.00
2019-04-30T06:34:13.765Z,8.01
2019-04-30T06:35:13.578Z,8.03
2019-04-30T06:36:13.671Z,8.12
2019-04-30T06:37:13.772Z,8.10
2019-04-30T06:38:13.595Z,8.09
2019-04-30T06:39:13.536Z,8.01
2019-04-30T06:40:13.648Z,8.01
2019-04-30T06:41:13.499Z,7.97
2019-04-30T06:42:13.631Z,8.00
2019-04-30T06:43:13.483Z,8.01
2019-04-30T06:44:13.659Z,8.05
2019-04-30T06:45:13.445Z,8.06
2019-04-30T06:46:13.637Z,8.00
2019-04-30T06:47:13.422Z,8.06
2019-04-30T06:48:13.563Z,8.03
2019-04-30T06:49:13.423Z,8.19
2019-04-30T06:50:13.591Z,8.12
2019-04-30T06:51:13.391Z,8.24
2019-04-30T06:52:20.537Z,8.16
2019-04-30T06:53:14.541Z,8.19
2019-04-30T06:54:13.384Z,8.18
2019-04-30T06:55:13.396Z,8.31
2019-04-30T06:56:13.404Z,8.31
2019-04-30T06:57:13.454Z,8.28
2019-04-30T06:58:15.575Z,8.31
2019-04-30T06:59:13.431Z,8.36
2019-04-30T07:00:13.291Z,8.41
2019-04-30T07:01:13.332Z,8.33
2019-04-30T07:02:13.354Z,8.33
2019-04-30T07:03:13.426Z,8.38
2019-04-30T07:04:13.280Z,8.28
2019-04-30T07:05:13.366Z,8.37
2019-04-30T07:06:13.399Z,8.31
2019-04-30T07:07:14.253Z,8.30
2019-04-30T07:08:14.191Z,8.27
2019-04-30T07:09:13.295Z,8.44
2019-04-30T07:10:16.782Z,8.53
2019-04-30T07:11:13.329Z,8.58
2019-04-30T07:12:23.023Z,8.52
2019-04-30T07:13:14.195Z,8.61
2019-04-30T07:14:13.284Z,8.64
2019-04-30T07:15:13.746Z,8.76
2019-04-30T07:16:13.235Z,8.73
2019-04-30T07:17:13.113Z,8.69
2019-04-30T07:18:13.386Z,8.67
2019-04-30T07:19:13.189Z,8.73
2019-04-30T07:20:13.112Z,8.67
2019-04-30T07:21:13.153Z,8.71
2019-04-30T07:22:13.247Z,8.67
2019-04-30T07:23:13.094Z,8.73
2019-04-30T07:24:13.135Z,8.82
2019-04-30T07:25:13.174Z,8.87
2019-04-30T07:26:13.752Z,8.79
2019-04-30T07:27:14.199Z,8.70
2019-04-30T07:28:13.004Z,8.64
2019-04-30T07:29:14.187Z,8.67
2019-04-30T07:30:13.182Z,8.73
2019-04-30T07:31:14.907Z,8.81
2019-04-30T07:32:12.954Z,8.89
2019-04-30T07:33:13.029Z,8.84
2019-04-30T07:34:12.935Z,8.85
2019-04-30T07:35:13.001Z,8.84
2019-04-30T07:36:12.908Z,8.89
2019-04-30T07:37:21.804Z,8.84
2019-04-30T07:38:14.085Z,8.79
2019-04-30T07:39:12.993Z,8.87
2019-04-30T07:40:12.873Z,8.91
2019-04-30T07:41:12.957Z,8.92
2019-04-30T07:42:12.872Z,8.78
2019-04-30T07:43:14.908Z,8.69
2019-04-30T07:44:29.726Z,8.71
2019-04-30T07:45:13.842Z,8.78
2019-04-30T07:46:13.433Z,8.89
2019-04-30T07:47:12.894Z,9.11
2019-04-30T07:48:12.765Z,9.22
2019-04-30T07:49:12.913Z,9.22
2019-04-30T07:50:13.216Z,9.10
2019-04-30T07:51:13.294Z,9.06
2019-04-30T07:52:13.497Z,8.91
2019-04-30T07:53:13.453Z,8.94
2019-04-30T07:54:12.911Z,9.00
2019-04-30T07:55:12.792Z,9.14
2019-04-30T07:56:24.229Z,9.11
2019-04-30T07:57:13.763Z,9.18
2019-04-30T07:58:12.773Z,9.18
2019-04-30T07:59:12.708Z,9.29
2019-04-30T08:00:12.749Z,9.48
2019-04-30T08:01:13.525Z,9.56
2019-04-30T08:02:14.839Z,9.54
2019-04-30T08:03:13.488Z,9.36
2019-04-30T08:04:12.608Z,9.41
2019-04-30T08:05:13.100Z,9.37
2019-04-30T08:06:12.645Z,9.29
2019-04-30T08:07:13.714Z,9.29
2019-04-30T08:08:21.197Z,9.46
2019-04-30T08:09:13.591Z,9.51
2019-04-30T08:10:13.702Z,9.65
2019-04-30T08:11:23.008Z,9.73
2019-04-30T08:12:22.032Z,9.79
2019-04-30T08:13:15.138Z,9.89
2019-04-30T08:14:21.155Z,9.94
2019-04-30T08:15:12.539Z,9.99
2019-04-30T08:16:19.234Z,9.99
2019-04-30T08:17:12.449Z,9.91
2019-04-30T08:18:12.611Z,9.95
2019-04-30T08:19:12.453Z,9.95
2019-04-30T08:20:15.879Z,9.95
2019-04-30T08:21:12.417Z,10.17
2019-04-30T08:22:12.407Z,10.04
2019-04-30T08:23:20.281Z,10.04
2019-04-30T08:24:13.789Z,10.09
2019-04-30T08:25:12.414Z,10.15
2019-04-30T08:26:12.441Z,10.22
2019-04-30T08:27:12.426Z,10.19
2019-04-30T08:28:13.498Z,10.12
2019-04-30T08:29:12.370Z,9.94
2019-04-30T08:30:21.323Z,9.94
2019-04-30T08:31:15.608Z,9.94
2019-04-30T08:32:12.374Z,9.98
2019-04-30T08:33:12.516Z,9.99
2019-04-30T08:34:12.310Z,9.95
2019-04-30T08:35:12.484Z,10.01
2019-04-30T08:36:12.297Z,10.22
2019-04-30T08:37:17.612Z,10.37
2019-04-30T08:38:13.419Z,10.38
2019-04-30T08:39:12.287Z,10.48
2019-04-30T08:40:12.406Z,10.63
2019-04-30T08:41:12.412Z,10.69
2019-04-30T08:42:12.361Z,10.75
2019-04-30T08:43:12.214Z,10.63
2019-04-30T08:44:12.208Z,10.79
2019-04-30T08:45:12.264Z,10.69
2019-04-30T08:46:12.212Z,10.60
2019-04-30T08:47:12.280Z,10.30
2019-04-30T08:48:12.127Z,10.25
2019-04-30T08:49:12.640Z,10.13
2019-04-30T08:50:12.139Z,10.13
2019-04-30T08:51:13.909Z,10.01
2019-04-30T08:52:12.172Z,10.13
2019-04-30T08:53:12.311Z,10.10
2019-04-30T08:54:12.100Z,10.22
2019-04-30T08:55:16.600Z,10.16
2019-04-30T08:56:12.082Z,10.35
2019-04-30T08:57:12.084Z,10.48
2019-04-30T08:58:15.138Z,10.59
2019-04-30T08:59:12.011Z,10.63
2019-04-30T09:00:14.950Z,10.69
2019-04-30T09:01:12.009Z,10.67
2019-04-30T09:02:16.013Z,10.75
2019-04-30T09:03:11.987Z,10.63
2019-04-30T09:04:13.177Z,10.63
2019-04-30T09:05:11.953Z,10.60
2019-04-30T09:06:12.114Z,10.69
2019-04-30T09:07:11.961Z,10.63
2019-04-30T09:08:13.178Z,10.60
2019-04-30T09:09:11.931Z,10.63
2019-04-30T09:10:12.066Z,10.63
2019-04-30T09:11:22.492Z,10.67
2019-04-30T09:12:12.884Z,10.68
2019-04-30T09:13:12.145Z,10.71
2019-04-30T09:14:11.871Z,10.56
2019-04-30T09:15:11.876Z,10.54
2019-04-30T09:16:11.984Z,10.56
2019-04-30T09:17:11.820Z,10.59
2019-04-30T09:18:12.761Z,10.71
2019-04-30T09:19:11.815Z,10.67
2019-04-30T09:20:11.911Z,10.63
2019-04-30T09:21:11.941Z,10.64
2019-04-30T09:22:15.112Z,10.69
2019-04-30T09:23:11.928Z,10.69
2019-04-30T09:24:11.785Z,10.81
2019-04-30T09:25:11.879Z,10.76
2019-04-30T09:26:11.782Z,10.82
2019-04-30T09:27:11.761Z,10.86
2019-04-30T09:28:11.856Z,10.93
2019-04-30T09:29:11.758Z,10.97
2019-04-30T09:30:11.859Z,10.89
2019-04-30T09:31:11.698Z,11.02
2019-04-30T09:32:11.782Z,11.04
2019-04-30T09:33:11.707Z,11.04
2019-04-30T09:34:17.508Z,10.99
2019-04-30T09:35:12.703Z,10.97
2019-04-30T09:36:11.818Z,11.04
2019-04-30T09:37:11.588Z,11.11
2019-04-30T09:38:11.763Z,11.23
2019-04-30T09:39:11.611Z,11.30
2019-04-30T09:40:17.900Z,11.37
2019-04-30T09:41:12.564Z,11.48
2019-04-30T09:42:11.742Z,11.51
2019-04-30T09:43:11.583Z,11.55
2019-04-30T09:44:11.636Z,11.59
2019-04-30T09:45:11.699Z,11.63
2019-04-30T09:46:22.033Z,11.68
2019-04-30T09:47:12.502Z,11.77
2019-04-30T09:48:11.676Z,11.78
2019-04-30T09:49:11.480Z,11.86
2019-04-30T09:50:12.668Z,11.88
2019-04-30T09:51:11.954Z,11.86
2019-04-30T09:52:11.819Z,11.91
2019-04-30T09:53:11.794Z,11.91
2019-04-30T09:54:12.713Z,12.02
2019-04-30T09:55:11.836Z,12.09
2019-04-30T09:56:11.886Z,12.02
2019-04-30T09:57:11.607Z,12.10
2019-04-30T09:58:16.863Z,12.02
2019-04-30T09:59:12.179Z,12.04
2019-04-30T10:00:11.635Z,12.07
2019-04-30T10:01:11.370Z,12.13
2019-04-30T10:02:11.889Z,12.24
2019-04-30T10:03:12.039Z,12.22
2019-04-30T10:04:12.120Z,12.27
2019-04-30T10:05:12.338Z,12.27
2019-04-30T10:06:11.507Z,12.32
2019-04-30T10:07:11.328Z,12.35
2019-04-30T10:08:11.514Z,12.39
2019-04-30T10:09:11.259Z,12.43
2019-04-30T10:10:11.534Z,12.40
2019-04-30T10:11:11.302Z,12.43
2019-04-30T10:12:12.404Z,12.45
2019-04-30T10:13:11.213Z,12.55
2019-04-30T10:14:11.342Z,12.65
2019-04-30T10:15:11.205Z,12.75
2019-04-30T10:16:11.435Z,12.67
2019-04-30T10:17:11.245Z,12.79
2019-04-30T10:18:11.293Z,12.82
2019-04-30T10:19:11.181Z,12.79
2019-04-30T10:20:11.305Z,12.83
2019-04-30T10:21:11.134Z,12.79
2019-04-30T10:22:11.371Z,12.91
2019-04-30T10:23:11.122Z,13.08
2019-04-30T10:24:15.469Z,13.11
2019-04-30T10:25:11.215Z,13.22
2019-04-30T10:26:11.094Z,13.19
2019-04-30T10:27:13.467Z,13.30
2019-04-30T10:28:11.059Z,13.50
2019-04-30T10:29:11.237Z,13.56
2019-04-30T10:30:11.065Z,13.65
2019-04-30T10:31:11.237Z,13.62
2019-04-30T10:32:11.101Z,13.63
2019-04-30T10:33:12.206Z,13.67
2019-04-30T10:34:11.009Z,13.65
2019-04-30T10:35:11.214Z,13.54
2019-04-30T10:36:11.013Z,13.53
2019-04-30T10:37:11.072Z,13.56
2019-04-30T10:38:11.005Z,13.57
2019-04-30T10:39:11.110Z,13.60
2019-04-30T10:40:10.996Z,13.62
2019-04-30T10:41:11.122Z,13.52
2019-04-30T10:42:10.963Z,13.56
2019-04-30T10:43:11.581Z,13.59
2019-04-30T10:44:10.929Z,13.59
2019-04-30T10:45:11.029Z,13.63
2019-04-30T10:46:10.892Z,13.68
2019-04-30T10:47:10.965Z,13.71
2019-04-30T10:48:10.910Z,13.78
2019-04-30T10:49:10.887Z,13.83
2019-04-30T10:50:10.974Z,13.89
2019-04-30T10:51:10.818Z,13.86
2019-04-30T10:52:10.952Z,13.79
2019-04-30T10:53:12.409Z,13.74
2019-04-30T10:54:22.768Z,13.79
2019-04-30T10:55:11.766Z,13.86
2019-04-30T10:56:10.997Z,13.93
2019-04-30T10:57:10.814Z,14.00
2019-04-30T10:58:10.972Z,14.03
2019-04-30T10:59:10.752Z,14.11
2019-04-30T11:00:10.775Z,14.28
2019-04-30T11:01:10.851Z,14.26
2019-04-30T11:02:10.754Z,14.43
2019-04-30T11:03:19.616Z,14.60
2019-04-30T11:04:11.684Z,14.69
2019-04-30T11:05:10.771Z,15.19
2019-04-30T11:06:10.653Z,15.80
2019-04-30T11:07:10.991Z,16.42
2019-04-30T11:08:10.694Z,17.22
2019-04-30T11:09:10.782Z,17.94
2019-04-30T11:10:10.631Z,18.34
2019-04-30T11:11:10.694Z,18.83
2019-04-30T11:12:10.594Z,19.14
2019-04-30T11:13:10.668Z,19.15
2019-04-30T11:14:10.732Z,19.29
2019-04-30T11:15:10.568Z,19.44
2019-04-30T11:16:14.729Z,19.19
2019-04-30T11:17:10.751Z,19.30
2019-04-30T11:18:10.861Z,19.49
2019-04-30T11:19:10.834Z,19.39
2019-04-30T11:20:10.904Z,19.54
2019-04-30T11:21:10.722Z,19.40
2019-04-30T11:22:10.704Z,19.71
2019-04-30T11:23:14.649Z,20.11
2019-04-30T11:24:10.837Z,20.16
2019-04-30T11:25:10.716Z,20.25
2019-04-30T11:26:10.971Z,20.47
2019-04-30T11:27:11.393Z,20.37
2019-04-30T11:28:11.069Z,19.73
2019-04-30T11:29:10.772Z,19.41
2019-04-30T11:30:20.782Z,19.27
2019-04-30T11:31:11.647Z,18.63
2019-04-30T11:32:10.681Z,18.34
2019-04-30T11:33:10.748Z,18.16
2019-04-30T11:34:10.727Z,18.16
2019-04-30T11:35:10.411Z,17.94
2019-04-30T11:36:10.451Z,18.20
2019-04-30T11:37:10.488Z,18.62
2019-04-30T11:38:10.485Z,18.71
2019-04-30T11:39:10.314Z,18.88
2019-04-30T11:40:11.398Z,19.26
2019-04-30T11:41:10.285Z,19.69
2019-04-30T11:42:10.491Z,19.48
2019-04-30T11:43:10.254Z,19.02
2019-04-30T11:44:10.435Z,18.31
2019-04-30T11:45:10.270Z,18.35
2019-04-30T11:46:10.274Z,18.31
2019-04-30T11:47:10.298Z,18.50
2019-04-30T11:48:10.400Z,18.35
2019-04-30T11:49:10.196Z,18.68
2019-04-30T11:50:10.389Z,18.89
2019-04-30T11:51:10.255Z,19.07
2019-04-30T11:52:10.196Z,19.00
2019-04-30T11:53:24.554Z,18.99
2019-04-30T11:54:11.149Z,18.71
2019-04-30T11:55:10.311Z,18.31
2019-04-30T11:56:10.180Z,18.11
2019-04-30T11:57:10.263Z,18.60
2019-04-30T11:58:21.118Z,19.36
2019-04-30T11:59:11.157Z,19.96
2019-04-30T12:00:10.767Z,20.39
2019-04-30T12:01:10.120Z,19.94
2019-04-30T12:02:10.168Z,19.67
2019-04-30T12:03:10.054Z,19.24
2019-04-30T12:04:10.169Z,18.99
2019-04-30T12:05:10.128Z,18.62
2019-04-30T12:06:10.158Z,18.28
2019-04-30T12:07:10.026Z,18.50
2019-04-30T12:08:10.141Z,18.63
2019-04-30T12:09:09.985Z,18.81
2019-04-30T12:10:11.119Z,19.02
2019-04-30T12:11:09.965Z,19.27
2019-04-30T12:12:09.964Z,19.31
2019-04-30T12:13:10.019Z,19.31
2019-04-30T12:14:10.107Z,19.45
2019-04-30T12:15:09.964Z,19.59
2019-04-30T12:16:10.050Z,19.82
2019-04-30T12:17:09.943Z,19.67
2019-04-30T12:18:10.199Z,19.67
2019-04-30T12:19:09.942Z,20.11
2019-04-30T12:20:10.970Z,19.45
2019-04-30T12:21:09.905Z,19.22
2019-04-30T12:22:09.960Z,19.21
2019-04-30T12:23:11.720Z,19.14
2019-04-30T12:24:10.053Z,19.12
2019-04-30T12:25:10.125Z,19.54
2019-04-30T12:26:09.879Z,19.49
2019-04-30T12:27:09.800Z,20.00
2019-04-30T12:28:09.907Z,20.26
2019-04-30T12:29:11.257Z,19.91
2019-04-30T12:30:09.898Z,19.63
2019-04-30T12:31:09.949Z,19.85
2019-04-30T12:32:09.960Z,19.70
2019-04-30T12:33:09.791Z,19.64
2019-04-30T12:34:09.843Z,20.14
2019-04-30T12:35:09.735Z,20.62
2019-04-30T12:36:09.911Z,21.11
2019-04-30T12:37:10.733Z,21.93
2019-04-30T12:38:09.686Z,22.38
2019-04-30T12:39:09.762Z,22.91
2019-04-30T12:40:25.506Z,22.98
2019-04-30T12:41:10.720Z,22.36
2019-04-30T12:42:10.804Z,21.55
2019-04-30T12:43:09.630Z,21.25
2019-04-30T12:44:09.612Z,21.42
2019-04-30T12:45:09.702Z,21.30
2019-04-30T12:46:09.670Z,21.27
2019-04-30T12:47:09.794Z,21.11
2019-04-30T12:48:09.599Z,20.25
2019-04-30T12:49:10.330Z,19.95
2019-04-30T12:50:09.647Z,19.79
2019-04-30T12:51:09.530Z,19.84
2019-04-30T12:52:10.355Z,19.84
2019-04-30T12:53:09.554Z,19.76
2019-04-30T12:54:10.586Z,19.51
2019-04-30T12:55:15.631Z,19.30
2019-04-30T12:56:10.515Z,19.85
2019-04-30T12:57:11.159Z,20.37
2019-04-30T12:58:09.869Z,21.03
2019-04-30T12:59:09.467Z,21.61
2019-04-30T13:00:09.700Z,22.22
2019-04-30T13:01:09.439Z,22.70
2019-04-30T13:02:09.532Z,22.54
2019-04-30T13:03:09.466Z,22.69
2019-04-30T13:04:09.866Z,22.98
2019-04-30T13:05:09.416Z,23.03
2019-04-30T13:06:11.098Z,23.23
2019-04-30T13:07:10.592Z,22.83
2019-04-30T13:08:10.323Z,22.69
2019-04-30T13:09:10.932Z,22.11